Bielsa, Aragón

latitud= 42° 37' 48''N |longitud= 000° 13' 29''E
990 metros sobre el nivel del mar | datos mensuales

Fecha, hora, temperatura, viento dirección y velocidad, humedad y presión.

  • 21-01-2018 02:00:00 | 5.90°C | Este |2.00 km/h | 98.00% | 0.00 hPa
  • 21-01-2018 01:00:00 | 5.90°C | Norte |3.00 km/h | 98.00% | 0.00 hPa
  • 21-01-2018 00:00:00 | 6.00°C | Noroeste |4.00 km/h | 98.00% | 0.00 hPa
  • 20-01-2018 23:00:00 | 6.20°C | Sudeste |3.00 km/h | 98.00% | 0.00 hPa
  • 20-01-2018 22:00:00 | 6.00°C | Oeste |4.00 km/h | 98.00% | 0.00 hPa
  • 20-01-2018 21:00:00 | 6.40°C | Sudeste |4.00 km/h | 98.00% | 0.00 hPa
  • 20-01-2018 20:00:00 | 6.20°C | Sudeste |5.00 km/h | 98.00% | 0.00 hPa
  • 20-01-2018 19:00:00 | 5.90°C | Este |3.00 km/h | 97.00% | 0.00 hPa
  • 20-01-2018 18:00:00 | 6.40°C | Sudeste |3.00 km/h | 93.00% | 0.00 hPa
  • 20-01-2018 17:00:00 | 7.50°C | Sudeste |2.00 km/h | 85.00% | 0.00 hPa
  • 20-01-2018 16:00:00 | 8.60°C | Sudeste |2.00 km/h | 70.00% | 0.00 hPa
  • 20-01-2018 15:00:00 | 8.70°C | Norte |3.00 km/h | 63.00% | 0.00 hPa
  • 20-01-2018 14:00:00 | 8.10°C | Este |3.00 km/h | 62.00% | 0.00 hPa
  • 20-01-2018 13:00:00 | 7.10°C | Noroeste |3.00 km/h | 56.00% | 0.00 hPa
  • 20-01-2018 12:00:00 | 6.50°C | Noroeste |5.00 km/h | 54.00% | 0.00 hPa
  • 20-01-2018 11:00:00 | 5.10°C | Sudeste |3.00 km/h | 62.00% | 0.00 hPa
  • 20-01-2018 10:00:00 | 3.20°C | Norte |5.00 km/h | 66.00% | 0.00 hPa
  • 20-01-2018 09:00:00 | 1.50°C | Sur |3.00 km/h | 79.00% | 0.00 hPa
  • 20-01-2018 08:00:00 | 1.20°C | Norte |5.00 km/h | 76.00% | 0.00 hPa
  • 20-01-2018 07:00:00 | 0.50°C | Norte |3.00 km/h | 80.00% | 0.00 hPa
  • 20-01-2018 06:00:00 | -0.30°C | Este |4.00 km/h | 82.00% | 0.00 hPa
  • 20-01-2018 05:00:00 | 0.30°C | Noroeste |2.00 km/h | 80.00% | 0.00 hPa
  • 20-01-2018 04:00:00 | 1.10°C | Noroeste |3.00 km/h | 76.00% | 0.00 hPa
  • 20-01-2018 03:00:00 | 0.70°C | Sudeste |3.00 km/h | 79.00% | 0.00 hPa